Time;durP1;ratioP1;P1;durP2;ratioP2;P2;SDS_P1;SDS_P2;PMS_P1;PMS_P2;Temp;Humidity;BMP_temperature;BMP_pressure;BME280_temperature;BME280_humidity;BME280_pressure;Samples;Min_cycle;Max_cycle;Signal;HPM_P1;HPM_P2
2023/03/26 00:01:45;;;;;;;;;1.00;1.00;;;;;12.75;53.01;100137.41;5034450;28;45438;-57
2023/03/26 00:04:11;;;;;;;;;0.80;0.80;;;;;12.86;53.70;100144.81;5035202;28;45355;-58
2023/03/26 00:06:38;;;;;;;;;1.00;1.00;;;;;12.83;54.43;100139.81;5034947;28;45307;-59
2023/03/26 00:09:08;;;;;;;;;1.40;0.80;;;;;12.85;54.80;100134.88;5017499;28;45399;-56
2023/03/26 00:11:33;;;;;;;;;1.40;1.00;;;;;12.67;54.85;100099.22;5035593;28;45615;-60
2023/03/26 00:13:59;;;;;;;;;1.00;0.00;;;;;12.80;55.92;100118.25;5016387;28;45992;-57
2023/03/26 00:16:27;;;;;;;;;1.00;1.00;;;;;12.72;55.21;100089.16;5016657;28;45473;-57
2023/03/26 00:18:52;;;;;;;;;0.20;0.00;;;;;12.51;55.16;100071.38;5035139;28;45390;-57
2023/03/26 00:21:20;;;;;;;;;1.25;1.25;;;;;12.61;55.41;100087.28;5016542;28;45485;-57
2023/03/26 00:23:47;;;;;;;;;1.00;1.00;;;;;12.67;55.18;100100.09;5034943;28;45931;-58
2023/03/26 00:26:14;;;;;;;;;0.00;0.00;;;;;12.66;56.04;100100.31;5033835;28;45394;-56
2023/03/26 00:28:40;;;;;;;;;1.40;1.40;;;;;12.59;56.19;100084.75;5035064;28;45271;-58
2023/03/26 00:31:07;;;;;;;;;1.40;1.40;;;;;12.66;56.20;100095.66;5034936;28;45469;-58
2023/03/26 00:33:37;;;;;;;;;3.60;0.80;;;;;12.51;56.25;100079.63;5034355;28;46366;-58
2023/03/26 00:36:04;;;;;;;;;1.40;1.40;;;;;12.52;57.00;100084.06;5025096;28;47234;-57
2023/03/26 00:38:30;;;;;;;;;2.80;0.40;;;;;12.47;57.24;100079.28;5015805;28;45346;-57
2023/03/26 00:41:04;;;;;;;;;2.00;0.00;;;;;12.39;57.59;100076.88;5016561;28;45466;-59
2023/03/26 00:43:31;;;;;;;;;1.00;1.00;;;;;12.38;59.09;100072.44;5016453;28;47484;-55
2023/03/26 00:45:57;;;;;;;;;3.40;2.00;;;;;12.28;58.74;100051.03;5027066;28;45455;-56
2023/03/26 00:48:23;;;;;;;;;1.25;1.00;;;;;12.25;59.62;100042.44;5015298;28;45455;-56
2023/03/26 00:50:48;;;;;;;;;1.75;0.75;;;;;11.95;59.74;99996.63;5018127;28;45569;-57
2023/03/26 00:53:14;;;;;;;;;3.25;2.00;;;;;12.01;60.09;100004.75;5032707;28;46071;-57
2023/03/26 00:55:40;;;;;;;;;1.00;1.00;;;;;12.11;60.22;100017.09;5033244;28;45796;-59
2023/03/26 00:58:09;;;;;;;;;1.80;1.20;;;;;12.10;60.93;100015.44;5033094;28;45504;-58
2023/03/26 01:00:38;;;;;;;;;0.00;0.00;;;;;11.82;61.08;99976.53;5019584;28;45727;-58
2023/03/26 01:03:04;;;;;;;;;0.00;0.00;;;;;11.96;61.67;99993.66;5025439;28;46394;-59
2023/03/26 01:05:32;;;;;;;;;0.75;0.75;;;;;11.97;62.24;99994.47;5033060;28;45731;-58
2023/03/26 01:08:23;;;;;;;;;0.60;0.60;;;;;11.96;62.65;99988.16;5031338;28;45466;-57
2023/03/26 01:10:51;;;;;;;;;2.00;1.00;;;;;11.98;62.97;99980.50;5015366;28;45689;-57
2023/03/26 01:13:21;;;;;;;;;0.00;0.00;;;;;11.87;62.72;99962.91;5032696;28;45450;-58
2023/03/26 01:15:49;;;;;;;;;2.00;0.80;;;;;11.95;63.56;99960.88;5031760;28;46484;-55
2023/03/26 01:18:25;;;;;;;;;0.60;0.60;;;;;11.91;63.47;99963.28;5014363;28;45395;-54
2023/03/26 01:20:51;;;;;;;;;0.20;0.20;;;;;11.84;63.61;99948.81;5033845;28;45402;-54
2023/03/26 01:23:21;;;;;;;;;2.80;0.00;;;;;11.80;64.14;99943.78;5015762;28;47861;-56
2023/03/26 01:25:50;;;;;;;;;2.00;1.00;;;;;11.76;64.13;99944.50;5033394;28;45423;-57
2023/03/26 01:28:16;;;;;;;;;2.00;1.00;;;;;11.65;65.10;99926.94;5016639;28;45276;-56
2023/03/26 01:31:10;;;;;;;;;2.75;1.00;;;;;11.60;65.41;99908.44;5050561;28;45636;-56
2023/03/26 01:33:46;;;;;;;;;2.20;1.00;;;;;11.47;65.52;99890.25;5015330;28;47001;-56
2023/03/26 01:36:32;;;;;;;;;1.20;1.00;;;;;11.61;66.21;99912.84;5017417;28;45396;-56
2023/03/26 01:39:00;;;;;;;;;0.40;0.40;;;;;11.52;66.00;99904.13;5035081;28;45438;-56
2023/03/26 01:41:32;;;;;;;;;1.00;1.00;;;;;11.50;66.62;99892.53;5034937;28;45448;-56
2023/03/26 01:44:27;;;;;;;;;2.00;1.00;;;;;11.47;66.57;99886.69;5050121;28;46574;-56
2023/03/26 01:46:52;;;;;;;;;1.00;1.00;;;;;11.43;67.30;99864.34;5016790;28;45411;-55
2023/03/26 01:49:18;;;;;;;;;0.50;0.00;;;;;11.36;67.98;99841.63;5016679;28;45319;-56
2023/03/26 01:51:44;;;;;;;;;0.50;0.50;;;;;11.34;67.30;99832.78;5017089;28;45430;-56
2023/03/26 01:54:17;;;;;;;;;4.25;2.00;;;;;11.33;67.55;99823.72;5033759;28;46359;-55
2023/03/26 01:56:53;;;;;;;;;1.80;1.20;;;;;11.29;67.84;99806.06;5016743;28;45843;-57
2023/03/26 01:59:40;;;;;;;;;1.00;0.80;;;;;11.28;67.89;99801.63;5017167;28;45413;-55
2023/03/26 02:02:10;;;;;;;;;0.00;0.00;;;;;10.97;68.16;99768.81;5029688;28;45397;-57
2023/03/26 02:04:36;;;;;;;;;0.20;0.00;;;;;11.16;68.66;99787.88;5041049;28;45519;-55
2023/03/26 02:07:28;;;;;;;;;0.00;0.00;;;;;11.16;68.95;99782.38;5033203;28;46025;-55
2023/03/26 02:09:58;;;;;;;;;1.20;1.00;;;;;11.06;69.19;99761.03;5047077;28;45501;-56
2023/03/26 02:12:24;;;;;;;;;3.00;3.00;;;;;11.10;69.37;99766.91;5016636;28;45570;-55
2023/03/26 02:14:49;;;;;;;;;1.00;1.00;;;;;11.05;69.58;99759.34;5015712;28;45887;-56
2023/03/26 02:17:15;;;;;;;;;2.00;1.00;;;;;11.08;70.58;99747.06;5016148;28;45399;-56
2023/03/26 02:19:41;;;;;;;;;0.60;0.00;;;;;11.06;70.02;99735.50;5049051;28;45466;-55
2023/03/26 02:22:10;;;;;;;;;1.50;0.00;;;;;11.13;69.75;99744.44;5049473;28;45322;-55
2023/03/26 02:24:37;;;;;;;;;0.80;0.80;;;;;11.05;70.25;99733.81;5015879;28;47612;-55
2023/03/26 02:27:06;;;;;;;;;1.80;1.00;;;;;11.02;70.55;99704.09;5033935;28;45447;-56
2023/03/26 02:29:42;;;;;;;;;1.00;1.00;;;;;10.99;70.42;99683.44;5033900;28;45351;-55
2023/03/26 02:32:12;;;;;;;;;2.20;1.60;;;;;10.97;70.14;99680.94;5033865;28;45320;-56
2023/03/26 02:34:40;;;;;;;;;2.40;1.60;;;;;10.71;70.05;99638.34;5033488;28;45478;-55
2023/03/26 02:37:06;;;;;;;;;1.40;1.40;;;;;10.94;71.00;99670.44;5015607;28;45562;-52
2023/03/26 02:39:31;;;;;;;;;2.00;2.00;;;;;11.04;70.37;99672.56;5016251;28;45308;-57
2023/03/26 02:41:57;;;;;;;;;3.00;2.75;;;;;11.10;70.62;99654.31;5033694;28;45347;-56
2023/03/26 02:44:22;;;;;;;;;1.00;1.00;;;;;11.10;71.18;99644.16;5035202;28;46606;-57
2023/03/26 02:46:48;;;;;;;;;3.75;2.00;;;;;10.83;70.43;99606.25;5037242;28;45384;-57
2023/03/26 02:49:14;;;;;;;;;1.50;1.50;;;;;11.09;70.37;99647.97;5037201;28;45192;-56
2023/03/26 02:51:39;;;;;;;;;2.00;2.00;;;;;10.83;70.12;99605.41;5019864;28;45370;-56
2023/03/26 02:54:05;;;;;;;;;3.25;1.50;;;;;10.96;70.76;99607.06;5051999;28;45456;-56
2023/03/26 02:56:31;;;;;;;;;2.00;2.00;;;;;11.09;70.11;99614.16;5037417;28;45236;-54
2023/03/26 02:58:56;;;;;;;;;1.75;1.75;;;;;10.88;70.50;99572.56;5037412;28;45435;-57
2023/03/26 03:01:22;;;;;;;;;3.25;2.00;;;;;11.14;70.48;99600.56;5037369;28;45435;-56
2023/03/26 03:03:47;;;;;;;;;1.25;1.25;;;;;11.19;70.36;99597.06;5010572;28;45569;-57
2023/03/26 03:06:15;;;;;;;;;2.00;2.00;;;;;11.21;70.05;99576.53;5019021;28;45350;-56
2023/03/26 03:08:41;;;;;;;;;1.00;1.00;;;;;11.21;69.54;99570.22;5019819;28;45459;-57
2023/03/26 03:11:08;;;;;;;;;3.00;2.00;;;;;11.17;69.28;99552.53;5018926;28;45445;-57
2023/03/26 03:13:34;;;;;;;;;2.40;1.60;;;;;11.31;69.73;99578.63;5036952;28;45373;-56
2023/03/26 03:15:59;;;;;;;;;1.50;1.00;;;;;11.34;69.43;99574.56;5019236;28;45340;-57
2023/03/26 03:18:25;;;;;;;;;2.50;2.00;;;;;11.08;69.74;99535.63;5037003;28;45252;-57
2023/03/26 03:20:51;;;;;;;;;4.00;2.50;;;;;11.28;69.52;99553.56;5019776;28;45445;-57
2023/03/26 03:23:16;;;;;;;;;1.00;1.00;;;;;11.31;69.05;99551.16;5036639;28;46865;-58
2023/03/26 03:25:41;;;;;;;;;1.25;1.00;;;;;11.42;68.91;99563.16;5037085;28;45516;-57
2023/03/26 03:28:07;;;;;;;;;0.00;0.00;;;;;11.03;68.65;99491.59;5036840;28;45405;-58
2023/03/26 03:30:33;;;;;;;;;2.00;0.75;;;;;11.47;68.25;99545.97;5036799;28;45392;-56
2023/03/26 03:33:01;;;;;;;;;2.50;1.25;;;;;11.47;67.59;99555.03;5036575;28;46148;-57
2023/03/26 03:35:26;;;;;;;;;3.00;1.00;;;;;11.43;67.09;99537.38;5037008;28;45513;-57
2023/03/26 03:37:52;;;;;;;;;0.00;0.00;;;;;11.42;66.77;99559.59;5036761;28;45403;-58
2023/03/26 03:40:18;;;;;;;;;1.00;1.00;;;;;11.45;66.91;99565.44;5037106;28;45311;-55
2023/03/26 03:42:45;;;;;;;;;2.00;1.00;;;;;11.43;66.45;99553.88;5036578;28;47433;-54
2023/03/26 03:45:10;;;;;;;;;0.80;0.80;;;;;11.39;66.86;99553.50;5018739;28;45323;-56
2023/03/26 03:47:36;;;;;;;;;0.00;0.00;;;;;11.42;66.29;99560.44;5036935;28;45246;-56
2023/03/26 03:50:02;;;;;;;;;0.00;0.00;;;;;11.48;66.28;99523.72;5037189;28;45463;-57
2023/03/26 03:52:27;;;;;;;;;1.00;0.00;;;;;11.48;66.67;99566.88;5036168;28;46284;-56
2023/03/26 03:54:55;;;;;;;;;2.25;0.25;;;;;11.43;66.24;99562.13;5000883;28;45417;-56
2023/03/26 03:57:20;;;;;;;;;1.60;1.00;;;;;11.44;66.40;99573.94;5035584;28;45434;-56
2023/03/26 03:59:46;;;;;;;;;0.50;0.00;;;;;11.33;66.98;99561.91;5018091;28;45431;-55
2023/03/26 04:02:12;;;;;;;;;1.00;0.00;;;;;11.28;66.96;99570.91;5036010;28;46346;-55
2023/03/26 04:04:38;;;;;;;;;0.50;0.50;;;;;11.22;65.63;99538.91;5035915;28;45346;-56
2023/03/26 04:07:05;;;;;;;;;0.00;0.00;;;;;11.18;66.11;99559.69;5018337;28;45484;-54
2023/03/26 04:09:30;;;;;;;;;0.00;0.00;;;;;10.97;65.48;99529.94;5018275;28;45408;-58
2023/03/26 04:11:55;;;;;;;;;0.25;0.25;;;;;11.11;65.22;99552.44;5036182;28;46107;-58
2023/03/26 04:14:21;;;;;;;;;0.00;0.00;;;;;11.12;64.89;99562.34;5051438;28;45502;-57
2023/03/26 04:16:47;;;;;;;;;0.00;0.00;;;;;10.95;64.49;99499.13;5035976;28;45459;-55
2023/03/26 04:19:14;;;;;;;;;0.00;0.00;;;;;11.12;64.23;99558.78;5035937;28;45917;-56
2023/03/26 04:21:41;;;;;;;;;0.00;0.00;;;;;11.11;64.08;99557.94;5051203;28;46038;-58
2023/03/26 04:24:07;;;;;;;;;0.00;0.00;;;;;11.08;63.66;99554.84;5035452;28;45212;-56
2023/03/26 04:26:33;;;;;;;;;0.00;0.00;;;;;11.05;63.29;99564.41;5035556;28;45236;-53
2023/03/26 04:29:01;;;;;;;;;1.00;1.00;;;;;10.88;63.30;99544.31;5018005;28;45206;-56
2023/03/26 04:31:29;;;;;;;;;0.80;0.80;;;;;10.76;63.60;99516.88;5035319;28;46036;-56
2023/03/26 04:34:23;;;;;;;;;0.00;0.00;;;;;11.07;63.66;99547.69;5050401;28;45474;-56
2023/03/26 04:36:48;;;;;;;;;0.00;0.00;;;;;11.06;63.28;99562.50;5030129;28;45333;-57
2023/03/26 04:39:14;;;;;;;;;0.00;0.00;;;;;11.14;63.16;99564.84;5051225;28;45539;-55
2023/03/26 04:41:39;;;;;;;;;1.00;0.00;;;;;10.88;62.90;99523.16;5050898;28;46148;-56
2023/03/26 04:44:05;;;;;;;;;0.00;0.00;;;;;11.12;62.88;99567.03;5035558;28;45378;-57
2023/03/26 04:46:32;;;;;;;;;0.00;0.00;;;;;11.09;63.15;99572.97;5035518;28;45443;-54
2023/03/26 04:48:58;;;;;;;;;0.80;0.00;;;;;11.00;63.63;99579.94;5035719;28;45393;-56
2023/03/26 04:51:25;;;;;;;;;0.00;0.00;;;;;10.95;62.54;99588.91;5035517;28;45612;-55
2023/03/26 04:53:53;;;;;;;;;1.20;0.00;;;;;10.84;63.46;99574.97;5034733;28;45530;-56
2023/03/26 04:56:31;;;;;;;;;1.00;0.00;;;;;10.91;63.05;99594.06;5035953;28;45282;-56
2023/03/26 04:58:58;;;;;;;;;0.00;0.00;;;;;10.89;63.29;99584.41;5050735;28;45444;-57
2023/03/26 05:01:27;;;;;;;;;0.00;0.00;;;;;10.60;63.84;99565.09;5033966;28;46533;-54
2023/03/26 05:03:53;;;;;;;;;0.00;0.00;;;;;10.63;63.24;99560.00;4984645;28;45789;-57
2023/03/26 05:06:18;;;;;;;;;0.00;0.00;;;;;10.86;63.47;99607.69;5033449;28;45306;-56
2023/03/26 05:08:44;;;;;;;;;0.00;0.00;;;;;10.82;63.11;99606.47;5035132;28;45647;-55
2023/03/26 05:11:10;;;;;;;;;1.00;1.00;;;;;10.77;63.15;99595.41;5035470;28;46010;-56
2023/03/26 05:13:36;;;;;;;;;0.00;0.00;;;;;10.60;63.34;99579.66;5034809;28;45430;-57
2023/03/26 05:16:01;;;;;;;;;0.00;0.00;;;;;10.86;63.52;99621.41;5021841;28;45342;-56
2023/03/26 05:18:27;;;;;;;;;0.00;0.00;;;;;10.74;63.74;99610.44;5027640;28;45363;-56
2023/03/26 05:20:52;;;;;;;;;0.00;0.00;;;;;10.83;62.46;99622.72;5031374;28;46721;-56
2023/03/26 05:23:18;;;;;;;;;0.00;0.00;;;;;10.82;62.92;99634.78;5015336;28;45405;-57
2023/03/26 05:25:43;;;;;;;;;0.25;0.00;;;;;10.77;63.27;99629.16;5015149;28;45545;-53
2023/03/26 05:28:09;;;;;;;;;0.00;0.00;;;;;10.78;62.55;99635.50;5015373;28;45342;-55
2023/03/26 05:30:35;;;;;;;;;0.00;0.00;;;;;10.81;62.58;99635.00;5015058;28;46878;-54
2023/03/26 05:33:01;;;;;;;;;0.00;0.00;;;;;10.86;62.89;99637.88;5005828;28;45397;-53
2023/03/26 05:35:27;;;;;;;;;0.60;0.00;;;;;10.76;62.44;99637.63;5035259;28;45661;-57
2023/03/26 05:37:52;;;;;;;;;0.00;0.00;;;;;10.61;63.35;99630.72;5017206;28;45442;-57
2023/03/26 05:40:18;;;;;;;;;0.50;0.00;;;;;10.73;62.60;99651.84;5017065;28;45925;-56
2023/03/26 05:42:44;;;;;;;;;0.00;0.00;;;;;10.72;63.20;99648.25;5034548;28;45463;-57
2023/03/26 05:45:10;;;;;;;;;0.00;0.00;;;;;10.78;63.07;99655.53;5033588;28;45478;-55
2023/03/26 05:47:36;;;;;;;;;0.00;0.00;;;;;10.86;62.53;99657.09;5035398;28;45521;-55
2023/03/26 05:50:02;;;;;;;;;0.75;0.00;;;;;10.88;62.32;99643.13;5032475;28;45876;-56
2023/03/26 05:52:27;;;;;;;;;2.50;0.00;;;;;10.83;62.81;99643.81;5014877;28;45353;-56
2023/03/26 05:54:53;;;;;;;;;0.00;0.00;;;;;10.82;62.31;99637.53;5029736;28;45252;-54
2023/03/26 05:57:18;;;;;;;;;0.00;0.00;;;;;10.61;62.59;99618.94;4996690;28;45490;-56
2023/03/26 05:59:44;;;;;;;;;1.00;0.00;;;;;10.71;62.48;99635.59;5014333;28;45557;-56
2023/03/26 06:02:10;;;;;;;;;0.00;0.00;;;;;10.71;62.31;99647.44;5016199;28;45334;-58
2023/03/26 06:04:39;;;;;;;;;0.00;0.00;;;;;10.53;62.53;99600.91;5016744;28;45337;-57
2023/03/26 06:07:08;;;;;;;;;0.00;0.00;;;;;10.70;61.91;99634.78;5034578;28;45356;-56
2023/03/26 06:09:37;;;;;;;;;0.00;0.00;;;;;10.71;61.62;99647.44;5048900;28;47386;-56
2023/03/26 06:12:06;;;;;;;;;0.40;0.00;;;;;10.68;61.56;99639.66;5034270;28;45508;-56
2023/03/26 06:14:32;;;;;;;;;1.80;0.60;;;;;10.75;61.38;99645.03;5016185;28;45445;-56
2023/03/26 06:16:57;;;;;;;;;1.75;0.00;;;;;10.73;61.65;99652.66;5033287;28;45249;-58
2023/03/26 06:19:23;;;;;;;;;0.00;0.00;;;;;10.60;61.00;99626.31;5033496;28;45936;-56
2023/03/26 06:21:48;;;;;;;;;1.50;0.75;;;;;10.73;61.67;99657.34;5032612;28;46472;-58
2023/03/26 06:24:15;;;;;;;;;1.00;0.00;;;;;10.83;61.13;99661.16;5049275;28;45374;-56
2023/03/26 06:26:41;;;;;;;;;0.00;0.00;;;;;10.71;60.66;99646.59;5049891;28;45476;-56
2023/03/26 06:29:07;;;;;;;;;1.00;0.00;;;;;10.95;61.21;99671.28;5033827;28;46140;-57
2023/03/26 06:31:32;;;;;;;;;1.50;1.00;;;;;10.93;61.40;99668.78;5033889;28;45245;-58
2023/03/26 06:33:57;;;;;;;;;0.00;0.00;;;;;10.94;60.89;99661.38;5034450;28;45302;-56
2023/03/26 06:36:23;;;;;;;;;0.00;0.00;;;;;11.02;60.77;99662.91;5034482;28;45539;-57
2023/03/26 06:38:49;;;;;;;;;0.00;0.00;;;;;11.09;60.13;99663.59;5016123;28;46074;-56
2023/03/26 06:41:14;;;;;;;;;0.00;0.00;;;;;10.86;60.87;99648.84;5049495;28;45342;-57
2023/03/26 06:43:40;;;;;;;;;0.00;0.00;;;;;10.95;60.94;99661.13;5034047;28;45835;-57
2023/03/26 06:46:05;;;;;;;;;1.00;1.00;;;;;11.05;60.91;99665.19;5034221;28;45351;-57
2023/03/26 06:48:31;;;;;;;;;1.00;1.00;;;;;10.67;60.05;99588.59;5033054;28;45689;-56
2023/03/26 06:50:56;;;;;;;;;3.00;1.00;;;;;10.95;60.44;99644.66;5034079;28;45374;-53
2023/03/26 06:53:22;;;;;;;;;2.00;0.00;;;;;11.04;60.18;99666.25;5033856;28;45510;-57
2023/03/26 06:55:47;;;;;;;;;1.00;0.25;;;;;10.95;60.10;99674.84;5033602;28;45457;-54
2023/03/26 06:58:13;;;;;;;;;1.00;0.00;;;;;10.92;60.20;99672.59;5033496;28;45602;-56
2023/03/26 07:00:39;;;;;;;;;2.00;2.00;;;;;10.91;60.20;99670.94;5033128;28;45165;-57
2023/03/26 07:03:04;;;;;;;;;0.00;0.00;;;;;11.04;60.35;99675.31;5033897;28;45375;-57
2023/03/26 07:05:30;;;;;;;;;0.00;0.00;;;;;11.08;59.82;99676.50;5033636;28;45544;-55
2023/03/26 07:07:56;;;;;;;;;1.00;1.00;;;;;11.17;59.66;99681.63;5033218;28;45332;-58
2023/03/26 07:10:21;;;;;;;;;2.00;1.00;;;;;11.13;59.62;99681.28;5033602;28;45622;-54
2023/03/26 07:12:46;;;;;;;;;0.50;0.00;;;;;11.08;59.85;99679.25;5033273;28;45385;-56
2023/03/26 07:15:12;;;;;;;;;1.25;1.00;;;;;10.93;59.85;99651.44;5033603;28;45455;-58
2023/03/26 07:17:37;;;;;;;;;0.75;0.75;;;;;11.17;59.84;99693.47;5033473;28;45725;-58
2023/03/26 07:20:06;;;;;;;;;5.00;1.25;;;;;10.97;59.46;99663.63;5032886;28;45409;-58
2023/03/26 07:22:32;;;;;;;;;2.40;0.00;;;;;11.11;60.30;99697.97;5015449;28;45285;-58
2023/03/26 07:24:58;;;;;;;;;2.75;1.00;;;;;11.05;59.60;99663.25;5048844;28;45397;-57
2023/03/26 07:27:39;;;;;;;;;0.75;0.50;;;;;11.29;59.96;99687.94;5033692;28;45559;-57
2023/03/26 07:30:14;;;;;;;;;1.80;0.80;;;;;11.36;59.76;99694.13;5033109;28;45427;-57
2023/03/26 07:33:00;;;;;;;;;2.00;1.00;;;;;11.44;59.72;99694.81;5052306;28;45436;-56
2023/03/26 07:35:54;;;;;;;;;1.00;0.00;;;;;11.47;59.41;99700.66;5036883;28;45328;-57
2023/03/26 07:38:38;;;;;;;;;0.80;0.00;;;;;11.38;59.45;99707.63;5035250;28;47561;-57
2023/03/26 07:41:06;;;;;;;;;6.40;1.80;;;;;11.39;59.36;99709.28;5034906;28;45378;-57
2023/03/26 07:43:37;;;;;;;;;1.00;1.00;;;;;11.22;59.42;99673.50;4999983;28;45583;-56
2023/03/26 07:46:11;;;;;;;;;1.20;0.00;;;;;11.35;59.80;99713.59;5035259;28;45593;-57
2023/03/26 07:48:43;;;;;;;;;1.00;0.80;;;;;11.42;59.68;99711.53;5034188;28;45489;-56
2023/03/26 07:51:10;;;;;;;;;0.00;0.00;;;;;11.48;59.83;99712.50;5036381;28;45319;-60
2023/03/26 07:53:36;;;;;;;;;1.80;1.00;;;;;11.58;59.47;99707.19;5036224;28;45260;-55
2023/03/26 07:56:07;;;;;;;;;3.00;2.00;;;;;11.65;59.28;99720.81;5018291;28;45704;-50
2023/03/26 07:58:45;;;;;;;;;1.60;0.80;;;;;11.72;59.70;99720.66;5035965;28;46482;-52
2023/03/26 08:01:33;;;;;;;;;0.60;0.60;;;;;11.70;59.41;99723.66;5034567;28;45283;-55
2023/03/26 08:04:01;;;;;;;;;0.80;0.80;;;;;11.51;59.03;99692.75;5033107;28;46044;-54
2023/03/26 08:06:38;;;;;;;;;1.00;1.00;;;;;11.73;59.37;99722.31;4992209;28;45395;-55
2023/03/26 08:09:43;;;;;;;;;1.00;1.00;;;;;11.53;59.72;99685.13;5051188;28;46116;-55
2023/03/26 08:12:29;;;;;;;;;1.00;1.00;;;;;11.80;59.24;99732.09;5015389;28;45262;-57
2023/03/26 08:15:24;;;;;;;;;0.60;0.60;;;;;11.72;59.58;99727.00;5035995;28;45248;-54
2023/03/26 08:18:05;;;;;;;;;1.60;1.00;;;;;11.75;59.95;99731.97;5036156;28;45589;-56
2023/03/26 08:20:42;;;;;;;;;5.40;2.20;;;;;11.79;59.73;99724.94;5036042;28;46228;-56
2023/03/26 08:23:22;;;;;;;;;2.40;2.00;;;;;11.82;59.79;99731.00;5051071;28;45381;-54
2023/03/26 08:26:24;;;;;;;;;5.00;3.00;;;;;11.85;59.93;99742.34;5051234;28;45493;-56
2023/03/26 08:29:08;;;;;;;;;3.20;0.00;;;;;11.84;59.25;99726.94;5036238;28;45421;-56
2023/03/26 08:31:35;;;;;;;;;2.80;0.00;;;;;11.80;60.13;99725.78;5034269;28;46136;-56
2023/03/26 08:34:01;;;;;;;;;1.80;1.00;;;;;11.87;59.19;99734.72;4998031;28;45385;-56
2023/03/26 08:36:26;;;;;;;;;2.00;0.00;;;;;11.61;59.34;99700.38;5023979;28;45323;-57
2023/03/26 08:38:52;;;;;;;;;1.75;1.75;;;;;11.86;59.33;99734.94;5036082;28;45272;-60
2023/03/26 08:42:04;;;;;;;;;2.00;0.40;;;;;11.90;59.35;99742.44;5000578;28;46184;-60
2023/03/26 08:44:47;;;;;;;;;2.00;2.00;;;;;11.48;59.09;99691.31;5001186;28;45624;-58
2023/03/26 08:47:31;;;;;;;;;2.40;1.20;;;;;11.90;59.37;99747.13;5046330;28;45415;-57
2023/03/26 08:49:59;;;;;;;;;1.00;0.40;;;;;11.96;59.02;99745.31;5032870;28;45483;-57
2023/03/26 08:52:50;;;;;;;;;1.40;0.00;;;;;11.80;58.86;99729.34;5031104;28;45834;-59
2023/03/26 08:55:27;;;;;;;;;1.00;1.00;;;;;11.77;58.35;99753.75;5011426;28;45785;-60
2023/03/26 08:58:22;;;;;;;;;1.20;1.20;;;;;11.71;58.42;99757.47;5013083;28;45547;-58
2023/03/26 09:01:02;;;;;;;;;1.40;1.20;;;;;11.69;58.11;99754.94;5003634;28;45511;-56
2023/03/26 09:03:49;;;;;;;;;0.60;0.60;;;;;11.64;58.80;99760.38;5008730;28;46517;-58
2023/03/26 09:06:24;;;;;;;;;4.80;1.40;;;;;11.66;58.78;99752.69;4993084;28;45498;-55
2023/03/26 09:09:27;;;;;;;;;1.80;0.20;;;;;11.70;57.19;99770.38;4985757;28;45526;-59
2023/03/26 09:12:07;;;;;;;;;2.00;2.00;;;;;11.21;57.78;99691.88;5028760;28;45490;-58
2023/03/26 09:15:10;;;;;;;;;0.40;0.40;;;;;11.70;58.20;99764.88;5031640;28;46533;-56
2023/03/26 09:18:04;;;;;;;;;0.40;0.00;;;;;11.70;57.27;99764.03;5028918;28;45483;-55
2023/03/26 09:20:36;;;;;;;;;0.60;0.00;;;;;11.61;57.84;99766.34;5012105;28;45552;-58
2023/03/26 09:23:23;;;;;;;;;0.00;0.00;;;;;11.69;57.60;99765.13;5005786;28;45320;-57
2023/03/26 09:26:11;;;;;;;;;2.40;1.00;;;;;11.61;56.81;99785.56;5025861;28;45983;-57
2023/03/26 09:29:00;;;;;;;;;4.00;0.20;;;;;11.55;56.25;99783.78;5016810;28;45461;-58
2023/03/26 09:31:56;;;;;;;;;2.00;0.00;;;;;11.26;56.14;99746.06;4993879;28;45482;-57
2023/03/26 09:34:40;;;;;;;;;2.20;0.40;;;;;11.44;56.55;99788.22;5000117;28;45414;-56
2023/03/26 09:37:49;;;;;;;;;1.00;1.00;;;;;11.49;57.23;99786.41;5031803;28;45343;-57
2023/03/26 09:40:19;;;;;;;;;1.00;1.00;;;;;11.50;56.69;99782.63;5015754;28;45458;-56
2023/03/26 09:42:48;;;;;;;;;2.60;0.00;;;;;11.55;56.73;99781.88;5015610;28;45438;-59
2023/03/26 09:45:17;;;;;;;;;0.00;0.00;;;;;11.39;57.15;99767.78;5016361;28;45459;-58
2023/03/26 09:48:10;;;;;;;;;2.40;1.00;;;;;11.50;56.20;99796.34;5036053;28;45691;-59
2023/03/26 09:50:39;;;;;;;;;1.00;1.00;;;;;11.55;56.99;99808.53;5013334;28;45449;-56
2023/03/26 09:53:32;;;;;;;;;0.80;0.80;;;;;11.44;56.33;99771.75;5012718;28;45316;-56
2023/03/26 09:56:19;;;;;;;;;0.00;0.00;;;;;11.59;56.36;99796.78;5013494;28;45466;-56
2023/03/26 09:59:07;;;;;;;;;0.00;0.00;;;;;11.60;56.79;99803.16;5012804;28;46733;-57
2023/03/26 10:01:55;;;;;;;;;0.00;0.00;;;;;11.50;56.81;99801.00;5012641;28;45472;-56
2023/03/26 10:04:25;;;;;;;;;1.00;0.00;;;;;11.31;56.47;99800.31;5017822;28;45821;-58
2023/03/26 10:07:25;;;;;;;;;0.80;0.20;;;;;11.32;57.20;99800.06;5033235;28;45525;-59
2023/03/26 10:10:21;;;;;;;;;0.00;0.00;;;;;11.44;57.15;99808.31;5015635;28;45780;-54
2023/03/26 10:13:15;;;;;;;;;0.00;0.00;;;;;11.46;57.30;99808.91;5038080;28;45404;-58
2023/03/26 10:15:40;;;;;;;;;2.00;0.40;;;;;11.49;56.51;99807.59;5053691;28;45386;-56
2023/03/26 10:18:13;;;;;;;;;7.50;4.75;;;;;11.43;56.88;99792.91;5053749;28;45540;-54
2023/03/26 10:20:47;;;;;;;;;0.60;0.00;;;;;11.75;56.88;99819.13;5018476;28;47752;-56
2023/03/26 10:23:20;;;;;;;;;2.20;0.20;;;;;11.82;56.01;99838.22;5035418;28;46689;-56
2023/03/26 10:25:58;;;;;;;;;1.00;1.00;;;;;11.82;56.24;99828.06;4989627;28;45403;-57
2023/03/26 10:28:50;;;;;;;;;0.00;0.00;;;;;11.91;55.78;99826.59;5017594;28;45653;-53
2023/03/26 10:31:33;;;;;;;;;1.60;0.60;;;;;11.91;55.96;99831.28;5030940;28;46022;-55
2023/03/26 10:34:22;;;;;;;;;2.40;0.00;;;;;11.88;55.47;99835.34;5028423;28;45790;-55
2023/03/26 10:37:07;;;;;;;;;0.00;0.00;;;;;11.91;56.13;99834.84;5043465;28;45467;-56
2023/03/26 10:39:43;;;;;;;;;0.00;0.00;;;;;12.00;56.07;99826.25;5030374;28;45640;-52
2023/03/26 10:42:21;;;;;;;;;1.00;0.60;;;;;12.00;55.90;99840.00;5013607;28;45494;-56
2023/03/26 10:44:49;;;;;;;;;5.60;2.60;;;;;12.13;55.21;99847.16;5046329;28;45490;-55
2023/03/26 10:47:32;;;;;;;;;1.00;0.00;;;;;12.19;55.49;99837.91;5029763;28;45418;-55
2023/03/26 10:50:05;;;;;;;;;0.00;0.00;;;;;12.10;54.65;99811.91;5024377;28;45478;-57
2023/03/26 10:52:35;;;;;;;;;3.20;1.00;;;;;12.12;55.66;99805.03;5033612;28;46666;-51
2023/03/26 10:55:17;;;;;;;;;0.00;0.00;;;;;12.38;54.95;99833.03;5034575;28;45310;-54
2023/03/26 10:57:47;;;;;;;;;0.40;0.40;;;;;12.27;54.68;99809.19;5018068;28;45465;-54
2023/03/26 11:00:15;;;;;;;;;0.80;0.80;;;;;12.44;54.61;99847.75;5017197;28;45842;-54
2023/03/26 11:02:46;;;;;;;;;0.20;0.00;;;;;12.56;54.47;99823.75;5017103;28;45624;-55
2023/03/26 11:05:42;;;;;;;;;1.20;1.00;;;;;12.95;53.98;99841.47;5033536;28;45406;-59
2023/03/26 11:08:13;;;;;;;;;2.20;0.00;;;;;12.93;53.15;99835.38;5036071;28;45402;-54
2023/03/26 11:10:57;;;;;;;;;0.00;0.00;;;;;13.19;53.48;99839.41;4993206;28;45604;-55
2023/03/26 11:13:44;;;;;;;;;1.40;0.00;;;;;13.34;53.89;99836.03;5038329;28;45650;-54
2023/03/26 11:16:46;;;;;;;;;0.00;0.00;;;;;13.37;52.94;99838.28;5035774;28;45438;-54
2023/03/26 11:19:40;;;;;;;;;0.00;0.00;;;;;13.16;52.87;99828.88;5035640;28;45452;-54
2023/03/26 11:22:11;;;;;;;;;0.00;0.00;;;;;13.19;53.49;99839.41;5020674;28;45518;-54
2023/03/26 11:24:43;;;;;;;;;0.00;0.00;;;;;13.42;52.95;99832.84;5018901;28;47528;-55
2023/03/26 11:27:40;;;;;;;;;0.40;0.20;;;;;13.58;52.06;99816.56;5035479;28;45644;-56
2023/03/26 11:30:32;;;;;;;;;0.00;0.00;;;;;13.26;52.10;99803.38;5011761;28;46754;-56
2023/03/26 11:33:01;;;;;;;;;0.00;0.00;;;;;13.11;52.06;99795.72;5005462;28;45683;-53
2023/03/26 11:35:34;;;;;;;;;0.00;0.00;;;;;13.32;51.18;99816.16;5017612;28;46594;-57
2023/03/26 11:38:05;;;;;;;;;1.00;0.00;;;;;13.37;50.77;99816.25;5051379;28;45494;-54
2023/03/26 11:40:33;;;;;;;;;0.00;0.00;;;;;13.33;49.94;99801.28;5017616;28;45414;-56
2023/03/26 11:43:05;;;;;;;;;0.00;0.00;;;;;13.08;49.87;99774.19;5017024;28;45348;-58
2023/03/26 11:45:32;;;;;;;;;0.00;0.00;;;;;13.23;50.22;99804.72;5000934;28;46668;-56
2023/03/26 11:48:37;;;;;;;;;0.40;0.00;;;;;13.22;48.81;99808.56;5001356;28;45598;-55
2023/03/26 11:51:16;;;;;;;;;0.00;0.00;;;;;12.90;49.43;99789.91;4957924;28;45532;-58
2023/03/26 11:53:45;;;;;;;;;1.60;0.80;;;;;13.05;49.56;99821.53;4996587;28;45999;-57
2023/03/26 11:56:29;;;;;;;;;0.00;0.00;;;;;13.07;50.43;99825.69;5014524;28;46484;-59